createdAt,value
2018-07-15T00:02:38.717Z,100667.11
2018-07-15T00:05:36.189Z,100662.94
2018-07-15T00:08:33.714Z,100658.20
2018-07-15T00:11:31.803Z,100662.20
2018-07-15T00:14:29.648Z,100666.45
2018-07-15T00:17:27.741Z,100658.65
2018-07-15T00:20:24.952Z,100658.70
2018-07-15T00:23:22.470Z,100661.69
2018-07-15T00:26:19.852Z,100663.94
2018-07-15T00:29:17.879Z,100667.32
2018-07-15T00:32:15.356Z,100661.33
2018-07-15T00:35:13.418Z,100664.48
2018-07-15T00:38:10.803Z,100662.93
2018-07-15T00:41:08.046Z,100660.08
2018-07-15T00:44:05.962Z,100658.19
2018-07-15T00:47:03.875Z,100660.83
2018-07-15T00:50:01.370Z,100652.77
2018-07-15T00:52:59.190Z,100658.50
2018-07-15T00:55:57.182Z,100658.78
2018-07-15T00:58:54.566Z,100663.47
2018-07-15T01:01:51.798Z,100660.77
2018-07-15T01:04:49.074Z,100656.09
2018-07-15T01:07:46.727Z,100659.88
2018-07-15T01:10:44.050Z,100665.70
2018-07-15T01:13:41.240Z,100663.84
2018-07-15T01:16:39.186Z,100658.46
2018-07-15T01:19:36.893Z,100657.37
2018-07-15T01:22:34.963Z,100653.05
2018-07-15T01:25:33.068Z,100653.05
2018-07-15T01:28:30.618Z,100657.63
2018-07-15T01:31:28.221Z,100651.67
2018-07-15T01:34:26.350Z,100653.79
2018-07-15T01:37:24.019Z,100649.98
2018-07-15T01:40:21.987Z,100646.73
2018-07-15T01:43:20.907Z,100645.90
2018-07-15T01:46:18.611Z,100650.97
2018-07-15T01:49:16.351Z,100649.43
2018-07-15T01:52:13.700Z,100644.48
2018-07-15T01:55:11.116Z,100650.25
2018-07-15T01:58:08.899Z,100641.02
2018-07-15T02:01:06.958Z,100640.68
2018-07-15T02:04:04.155Z,100638.38
2018-07-15T02:07:01.635Z,100635.84
2018-07-15T02:09:59.582Z,100639.70
2018-07-15T02:12:57.669Z,100641.84
2018-07-15T02:15:55.841Z,100639.97
2018-07-15T02:18:53.932Z,100636.02
2018-07-15T02:21:51.347Z,100636.28
2018-07-15T02:24:48.959Z,100638.66
2018-07-15T02:27:46.521Z,100635.13
2018-07-15T02:30:43.644Z,100635.33
2018-07-15T02:33:40.739Z,100637.31
2018-07-15T02:36:38.857Z,100637.92
2018-07-15T02:39:35.988Z,100638.84
2018-07-15T02:42:33.604Z,100639.55
2018-07-15T02:45:31.170Z,100631.38
2018-07-15T02:48:29.114Z,100644.88
2018-07-15T02:51:26.478Z,100647.97
2018-07-15T02:54:23.671Z,100643.83
2018-07-15T02:57:21.018Z,100646.42
2018-07-15T03:00:18.322Z,100652.16
2018-07-15T03:03:15.647Z,100644.92
2018-07-15T03:06:13.016Z,100639.01
2018-07-15T03:09:10.177Z,100638.03
2018-07-15T03:12:08.255Z,100642.09
2018-07-15T03:15:06.074Z,100632.27
2018-07-15T03:18:04.147Z,100631.52
2018-07-15T03:21:01.535Z,100633.89
2018-07-15T03:23:58.692Z,100632.88
2018-07-15T03:26:55.818Z,100626.55
2018-07-15T03:29:54.231Z,100629.14
2018-07-15T03:32:52.530Z,100622.66
2018-07-15T03:35:50.530Z,100624.86
2018-07-15T03:38:48.654Z,100626.87
2018-07-15T03:41:46.227Z,100619.88
2018-07-15T03:44:43.553Z,100619.87
2018-07-15T03:47:41.553Z,100618.70
2018-07-15T03:50:39.522Z,100615.89
2018-07-15T03:53:36.593Z,100617.19
2018-07-15T03:56:33.906Z,100617.73
2018-07-15T03:59:31.502Z,100620.20
2018-07-15T04:02:28.953Z,100624.04
2018-07-15T04:05:26.427Z,100616.59
2018-07-15T04:08:24.124Z,100615.91
2018-07-15T04:11:21.217Z,100607.92
2018-07-15T04:14:19.082Z,100613.50
2018-07-15T04:17:17.071Z,100604.92
2018-07-15T04:20:14.766Z,100601.48
2018-07-15T04:23:13.219Z,100603.23
2018-07-15T04:26:11.254Z,100601.45
2018-07-15T04:29:09.295Z,100598.77
2018-07-15T04:32:07.284Z,100598.28
2018-07-15T04:35:04.763Z,100598.08
2018-07-15T04:38:02.766Z,100596.02
2018-07-15T04:41:00.839Z,100598.81
2018-07-15T04:43:58.961Z,100601.20
2018-07-15T04:46:57.309Z,100599.71
2018-07-15T04:49:54.506Z,100595.61
2018-07-15T04:52:51.850Z,100588.59
2018-07-15T04:55:49.126Z,100593.20
2018-07-15T04:58:46.160Z,100598.81
2018-07-15T05:01:48.544Z,100602.39
2018-07-15T05:04:46.715Z,100595.19
2018-07-15T05:07:44.367Z,100593.56
2018-07-15T05:10:41.606Z,100598.00
2018-07-15T05:13:39.219Z,100596.23
2018-07-15T05:16:36.791Z,100591.03
2018-07-15T05:19:34.461Z,100591.34
2018-07-15T05:22:32.579Z,100591.89
2018-07-15T05:25:30.039Z,100603.57
2018-07-15T05:28:28.063Z,100600.69
2018-07-15T05:31:26.150Z,100601.29
2018-07-15T05:34:24.298Z,100605.22
2018-07-15T05:37:21.790Z,100606.87
2018-07-15T05:40:19.991Z,100614.63
2018-07-15T05:43:17.697Z,100605.89
2018-07-15T05:46:15.431Z,100611.10
2018-07-15T05:49:13.775Z,100603.34
2018-07-15T05:52:10.920Z,100606.63
2018-07-15T05:55:08.921Z,100609.92
2018-07-15T05:58:06.387Z,100606.70
2018-07-15T06:01:03.447Z,100613.28
2018-07-15T06:04:00.680Z,100617.19
2018-07-15T06:06:57.808Z,100612.20
2018-07-15T06:09:55.009Z,100615.06
2018-07-15T06:12:52.244Z,100617.57
2018-07-15T06:15:49.526Z,100611.61
2018-07-15T06:18:47.691Z,100618.77
2018-07-15T06:21:45.546Z,100616.84
2018-07-15T06:24:43.447Z,100619.16
2018-07-15T06:27:41.275Z,100614.86
2018-07-15T06:30:38.638Z,100611.80
2018-07-15T06:33:35.720Z,100619.16
2018-07-15T06:36:33.245Z,100605.12
2018-07-15T06:39:30.754Z,100609.97
2018-07-15T06:42:28.587Z,100606.02
2018-07-15T06:45:26.734Z,100609.75
2018-07-15T06:48:24.929Z,100620.19
2018-07-15T06:51:22.839Z,100615.81
2018-07-15T06:54:20.097Z,100629.28
2018-07-15T06:57:18.030Z,100612.46
2018-07-15T07:00:16.046Z,100618.83
2018-07-15T07:03:13.317Z,100614.62
2018-07-15T07:06:11.403Z,100614.36
2018-07-15T07:09:08.699Z,100610.90
2018-07-15T07:12:05.889Z,100604.50
2018-07-15T07:15:04.200Z,100599.36
2018-07-15T07:18:01.518Z,100597.81
2018-07-15T07:20:59.780Z,100602.77
2018-07-15T07:23:58.079Z,100606.13
2018-07-15T07:26:55.687Z,100603.77
2018-07-15T07:29:53.429Z,100616.40
2018-07-15T07:32:50.795Z,100615.64
2018-07-15T07:35:48.291Z,100605.53
2018-07-15T07:38:45.958Z,100608.58
2018-07-15T07:41:43.806Z,100603.28
2018-07-15T07:44:40.983Z,100616.68
2018-07-15T07:47:38.426Z,100599.19
2018-07-15T07:50:37.120Z,100622.63
2018-07-15T07:53:34.591Z,100608.77
2018-07-15T07:56:32.030Z,100612.83
2018-07-15T07:59:29.986Z,100609.42
2018-07-15T08:02:27.363Z,100609.75
2018-07-15T08:05:25.227Z,100594.06
2018-07-15T08:08:22.876Z,100603.15
2018-07-15T08:11:20.906Z,100595.81
2018-07-15T08:14:17.977Z,100598.80
2018-07-15T08:17:16.021Z,100596.37
2018-07-15T08:20:14.144Z,100602.88
2018-07-15T08:23:11.213Z,100613.37
2018-07-15T08:26:09.117Z,100613.48
2018-07-15T08:29:06.327Z,100598.30
2018-07-15T08:32:03.318Z,100602.38
2018-07-15T08:35:00.655Z,100600.67
2018-07-15T08:37:58.681Z,100598.47
2018-07-15T08:40:56.287Z,100587.58
2018-07-15T08:43:53.606Z,100597.61
2018-07-15T08:46:51.767Z,100604.80
2018-07-15T08:49:48.918Z,100599.34
2018-07-15T08:52:46.217Z,100612.30
2018-07-15T08:55:44.154Z,100595.64
2018-07-15T08:58:42.006Z,100585.97
2018-07-15T09:01:39.246Z,100585.42
2018-07-15T09:04:37.543Z,100582.58
2018-07-15T09:07:34.891Z,100583.05
2018-07-15T09:10:32.164Z,100588.50
2018-07-15T09:13:29.290Z,100580.20
2018-07-15T09:16:26.886Z,100587.49
2018-07-15T09:19:24.886Z,100596.77
2018-07-15T09:22:22.897Z,100581.06
2018-07-15T09:25:20.356Z,100585.52
2018-07-15T09:28:18.466Z,100586.29
2018-07-15T09:31:16.328Z,100591.91
2018-07-15T09:34:14.420Z,100581.86
2018-07-15T09:37:12.467Z,100586.40
2018-07-15T09:40:10.592Z,100585.56
2018-07-15T09:43:07.810Z,100594.72
2018-07-15T09:46:05.813Z,100590.75
2018-07-15T09:49:03.962Z,100594.08
2018-07-15T09:52:01.654Z,100592.08
2018-07-15T09:54:58.747Z,100580.53
2018-07-15T09:57:55.802Z,100584.95
2018-07-15T10:00:59.372Z,100583.72
2018-07-15T10:03:57.608Z,100590.58
2018-07-15T10:06:55.794Z,100581.11
2018-07-15T10:09:53.595Z,100568.26
2018-07-15T10:12:51.469Z,100568.73
2018-07-15T10:15:49.835Z,100574.48
2018-07-15T10:18:47.761Z,100572.88
2018-07-15T10:21:45.672Z,100560.43
2018-07-15T10:24:43.234Z,100564.95
2018-07-15T10:27:40.960Z,100556.17
2018-07-15T10:30:38.884Z,100545.58
2018-07-15T10:33:36.954Z,100552.81
2018-07-15T10:36:35.130Z,100561.63
2018-07-15T10:39:33.122Z,100558.32
2018-07-15T10:42:31.209Z,100540.38
2018-07-15T10:45:28.668Z,100534.45
2018-07-15T10:48:26.035Z,100532.06
2018-07-15T10:51:23.312Z,100528.14
2018-07-15T10:54:20.404Z,100534.47
2018-07-15T10:57:18.091Z,100543.00
2018-07-15T11:00:15.465Z,100532.61
2018-07-15T11:03:13.248Z,100533.30
2018-07-15T11:06:10.439Z,100528.18
2018-07-15T11:09:07.945Z,100527.55
2018-07-15T11:12:05.534Z,100529.16
2018-07-15T11:15:03.290Z,100516.78
2018-07-15T11:18:00.352Z,100506.28
2018-07-15T11:20:57.927Z,100517.84
2018-07-15T11:23:55.427Z,100500.44
2018-07-15T11:26:53.086Z,100503.52
2018-07-15T11:29:50.424Z,100492.09
2018-07-15T11:32:48.547Z,100497.28
2018-07-15T11:35:46.446Z,100511.92
2018-07-15T11:38:43.607Z,100505.06
2018-07-15T11:41:41.635Z,100508.84
2018-07-15T11:44:39.646Z,100518.61
2018-07-15T11:47:37.184Z,100512.52
2018-07-15T11:50:35.204Z,100510.57
2018-07-15T11:53:33.311Z,100506.27
2018-07-15T11:56:30.363Z,100504.84
2018-07-15T11:59:28.176Z,100501.83
2018-07-15T12:02:25.842Z,100490.16
2018-07-15T12:05:23.850Z,100492.52
2018-07-15T12:08:21.210Z,100484.23
2018-07-15T12:11:18.343Z,100479.34
2018-07-15T12:14:16.189Z,100472.72
2018-07-15T12:17:14.106Z,100477.81
2018-07-15T12:20:11.904Z,100464.25
2018-07-15T12:23:09.889Z,100468.60
2018-07-15T12:26:07.819Z,100470.22
2018-07-15T12:29:05.710Z,100464.59
2018-07-15T12:32:03.458Z,100459.36
2018-07-15T12:35:00.682Z,100461.86
2018-07-15T12:37:58.983Z,100447.48
2018-07-15T12:40:57.259Z,100438.45
2018-07-15T12:43:55.346Z,100441.69
2018-07-15T12:46:52.475Z,100437.67
2018-07-15T12:49:50.312Z,100430.08
2018-07-15T12:52:48.196Z,100432.27
2018-07-15T12:55:45.496Z,100426.87
2018-07-15T12:58:43.348Z,100423.55
2018-07-15T13:01:40.598Z,100430.31
2018-07-15T13:04:38.474Z,100419.59
2018-07-15T13:07:36.220Z,100429.79
2018-07-15T13:10:34.191Z,100411.37
2018-07-15T13:13:32.191Z,100411.32
2018-07-15T13:16:29.810Z,100410.41
2018-07-15T13:19:27.522Z,100398.27
2018-07-15T13:22:25.289Z,100401.19
2018-07-15T13:25:23.216Z,100399.05
2018-07-15T13:28:21.130Z,100399.25
2018-07-15T13:31:19.116Z,100394.01
2018-07-15T13:34:16.738Z,100387.88
2018-07-15T13:37:13.864Z,100396.98
2018-07-15T13:40:11.811Z,100392.14
2018-07-15T13:43:09.915Z,100387.49
2018-07-15T13:46:07.676Z,100376.13
2018-07-15T13:49:05.032Z,100389.00
2018-07-15T13:52:02.201Z,100389.34
2018-07-15T13:54:59.981Z,100380.63
2018-07-15T13:57:57.586Z,100389.46
2018-07-15T14:00:55.305Z,100389.14
2018-07-15T14:03:53.347Z,100381.65
2018-07-15T14:06:50.562Z,100380.17
2018-07-15T14:09:47.746Z,100369.78
2018-07-15T14:12:45.016Z,100373.13
2018-07-15T14:15:42.714Z,100377.31
2018-07-15T14:18:39.936Z,100391.52
2018-07-15T14:21:37.731Z,100381.52
2018-07-15T14:24:35.707Z,100372.69
2018-07-15T14:27:33.935Z,100373.11
2018-07-15T14:30:31.641Z,100367.28
2018-07-15T14:33:29.122Z,100358.31
2018-07-15T14:36:26.455Z,100353.22
2018-07-15T14:39:24.022Z,100357.25
2018-07-15T14:42:21.478Z,100359.03
2018-07-15T14:45:19.643Z,100352.53
2018-07-15T14:48:17.248Z,100344.02
2018-07-15T14:51:14.446Z,100342.13
2018-07-15T14:54:12.188Z,100339.91
2018-07-15T14:57:10.116Z,100340.64
2018-07-15T15:00:08.441Z,100342.45
2018-07-15T15:03:06.624Z,100337.42
2018-07-15T15:06:04.078Z,100329.19
2018-07-15T15:09:01.716Z,100327.45
2018-07-15T15:11:59.271Z,100330.05
2018-07-15T15:14:56.747Z,100322.67
2018-07-15T15:17:54.207Z,100334.89
2018-07-15T15:20:51.761Z,100337.76
2018-07-15T15:23:48.996Z,100343.98
2018-07-15T15:26:46.895Z,100339.23
2018-07-15T15:29:44.153Z,100337.97
2018-07-15T15:32:41.507Z,100333.19
2018-07-15T15:35:38.759Z,100332.58
2018-07-15T15:38:36.225Z,100328.37
2018-07-15T15:41:33.472Z,100323.16
2018-07-15T15:44:31.726Z,100329.07
2018-07-15T15:47:29.506Z,100320.62
2018-07-15T15:50:27.048Z,100326.73
2018-07-15T15:53:25.010Z,100331.53
2018-07-15T15:56:22.640Z,100324.40
2018-07-15T15:59:20.238Z,100322.58
2018-07-15T16:02:18.315Z,100319.31
2018-07-15T16:05:15.845Z,100314.16
2018-07-15T16:08:13.810Z,100307.61
2018-07-15T16:11:11.806Z,100303.05
2018-07-15T16:14:09.390Z,100293.05
2018-07-15T16:17:07.682Z,100289.48
2018-07-15T16:20:04.794Z,100285.59
2018-07-15T16:23:02.436Z,100288.09
2018-07-15T16:25:59.640Z,100278.27
2018-07-15T16:28:57.152Z,100281.06
2018-07-15T16:31:54.401Z,100278.73
2018-07-15T16:34:52.394Z,100281.56
2018-07-15T16:37:49.777Z,100280.67
2018-07-15T16:40:47.139Z,100284.78
2018-07-15T16:43:44.976Z,100283.66
2018-07-15T16:46:42.670Z,100285.23
2018-07-15T16:49:39.768Z,100286.37
2018-07-15T16:52:37.977Z,100284.84
2018-07-15T16:55:35.987Z,100294.86
2018-07-15T16:58:33.223Z,100285.97
2018-07-15T17:01:30.593Z,100294.58
2018-07-15T17:04:28.304Z,100289.06
2018-07-15T17:07:25.814Z,100291.50
2018-07-15T17:10:22.900Z,100288.90
2018-07-15T17:13:20.656Z,100283.60
2018-07-15T17:16:17.988Z,100293.21
2018-07-15T17:19:16.048Z,100292.84
2018-07-15T17:22:13.946Z,100287.98
2018-07-15T17:25:11.831Z,100291.64
2018-07-15T17:28:09.691Z,100290.01
2018-07-15T17:31:07.052Z,100282.15
2018-07-15T17:34:05.174Z,100290.47
2018-07-15T17:37:02.905Z,100296.20
2018-07-15T17:40:00.081Z,100291.53
2018-07-15T17:42:57.552Z,100288.76
2018-07-15T17:45:54.590Z,100297.27
2018-07-15T17:48:51.645Z,100292.53
2018-07-15T17:51:48.971Z,100294.60
2018-07-15T17:54:46.146Z,100296.53
2018-07-15T17:57:43.431Z,100296.00
2018-07-15T18:00:40.798Z,100296.73
2018-07-15T18:03:38.134Z,100295.53
2018-07-15T18:06:36.359Z,100295.64
2018-07-15T18:09:33.506Z,100292.86
2018-07-15T18:12:31.586Z,100290.23
2018-07-15T18:15:28.787Z,100290.66
2018-07-15T18:18:26.798Z,100286.94
2018-07-15T18:21:24.326Z,100286.67
2018-07-15T18:24:21.921Z,100294.64
2018-07-15T18:27:19.867Z,100283.42
2018-07-15T18:30:17.853Z,100295.41
2018-07-15T18:33:16.096Z,100293.05
2018-07-15T18:36:13.951Z,100294.83
2018-07-15T18:39:11.649Z,100287.30
2018-07-15T18:42:09.797Z,100290.12
2018-07-15T18:45:07.558Z,100292.91
2018-07-15T18:48:04.995Z,100285.51
2018-07-15T18:51:02.908Z,100282.83
2018-07-15T18:54:00.627Z,100279.55
2018-07-15T18:56:57.862Z,100278.24
2018-07-15T18:59:55.856Z,100279.45
2018-07-15T19:02:52.954Z,100283.69
2018-07-15T19:05:50.944Z,100292.58
2018-07-15T19:08:48.683Z,100298.57
2018-07-15T19:11:46.912Z,100298.26
2018-07-15T19:14:44.831Z,100299.89
2018-07-15T19:17:41.935Z,100304.96
2018-07-15T19:20:39.972Z,100304.23
2018-07-15T19:23:37.062Z,100299.23
2018-07-15T19:26:34.462Z,100299.20
2018-07-15T19:29:32.557Z,100305.67
2018-07-15T19:32:30.403Z,100312.33
2018-07-15T19:35:28.515Z,100310.52
2018-07-15T19:38:26.284Z,100311.41
2018-07-15T19:41:24.415Z,100317.05
2018-07-15T19:44:21.896Z,100318.48
2018-07-15T19:47:19.991Z,100315.99
2018-07-15T19:50:18.142Z,100316.50
2018-07-15T19:53:15.944Z,100313.77
2018-07-15T19:56:13.447Z,100313.66
2018-07-15T19:59:11.276Z,100318.52
2018-07-15T20:02:08.910Z,100320.71
2018-07-15T20:05:07.109Z,100320.59
2018-07-15T20:08:04.646Z,100323.50
2018-07-15T20:11:02.855Z,100314.38
2018-07-15T20:14:00.304Z,100318.01
2018-07-15T20:16:58.474Z,100324.11
2018-07-15T20:19:56.453Z,100313.47
2018-07-15T20:22:54.218Z,100314.94
2018-07-15T20:25:52.183Z,100320.99
2018-07-15T20:28:50.379Z,100311.05
2018-07-15T20:31:48.472Z,100312.55
2018-07-15T20:34:46.082Z,100312.97
2018-07-15T20:37:43.819Z,100325.09
2018-07-15T20:40:41.795Z,100325.94
2018-07-15T20:43:39.010Z,100328.34
2018-07-15T20:46:36.824Z,100324.34
2018-07-15T20:49:34.888Z,100329.05
2018-07-15T20:52:33.495Z,100327.59
2018-07-15T20:55:31.222Z,100333.38
2018-07-15T20:58:29.194Z,100338.58
2018-07-15T21:01:27.227Z,100333.04
2018-07-15T21:04:24.902Z,100333.86
2018-07-15T21:07:22.807Z,100335.73
2018-07-15T21:10:19.921Z,100338.10
2018-07-15T21:13:18.036Z,100342.03
2018-07-15T21:16:16.319Z,100347.06
2018-07-15T21:19:13.847Z,100343.43
2018-07-15T21:22:11.091Z,100344.67
2018-07-15T21:25:08.259Z,100340.57
2018-07-15T21:28:05.560Z,100342.73
2018-07-15T21:31:03.008Z,100344.46
2018-07-15T21:34:00.275Z,100343.14
2018-07-15T21:36:58.156Z,100348.14
2018-07-15T21:39:55.796Z,100352.96
2018-07-15T21:42:53.676Z,100357.02
2018-07-15T21:45:51.449Z,100351.22
2018-07-15T21:48:49.054Z,100345.96
2018-07-15T21:51:46.498Z,100346.67
2018-07-15T21:54:44.389Z,100355.17
2018-07-15T21:57:42.244Z,100351.88
2018-07-15T22:00:39.593Z,100355.85
2018-07-15T22:03:37.566Z,100354.34
2018-07-15T22:06:47.619Z,100348.86
2018-07-15T22:10:00.355Z,100363.13
2018-07-15T22:12:58.344Z,100362.50
2018-07-15T22:15:55.888Z,100363.16
2018-07-15T22:18:53.763Z,100366.83
2018-07-15T22:21:51.827Z,100370.31
2018-07-15T22:24:49.773Z,100372.23
2018-07-15T22:27:46.976Z,100364.28
2018-07-15T22:30:44.977Z,100363.63
2018-07-15T22:33:42.324Z,100360.47
2018-07-15T22:36:39.726Z,100364.26
2018-07-15T22:39:37.211Z,100365.39
2018-07-15T22:42:34.875Z,100366.74
2018-07-15T22:45:31.974Z,100364.43
2018-07-15T22:48:29.911Z,100364.09
2018-07-15T22:51:27.082Z,100363.27
2018-07-15T22:54:24.862Z,100366.35
2018-07-15T22:57:22.170Z,100367.47
2018-07-15T23:00:19.374Z,100363.43
2018-07-15T23:03:17.550Z,100365.32
2018-07-15T23:06:27.475Z,100369.91
2018-07-15T23:09:25.405Z,100365.69
2018-07-15T23:12:23.559Z,100367.34
2018-07-15T23:15:21.383Z,100365.69
2018-07-15T23:18:19.130Z,100365.47
2018-07-15T23:21:16.742Z,100363.93
2018-07-15T23:24:14.610Z,100366.48
2018-07-15T23:27:21.290Z,100368.12
2018-07-15T23:30:19.027Z,100360.13
2018-07-15T23:33:16.824Z,100361.31
2018-07-15T23:36:14.760Z,100358.98
2018-07-15T23:39:12.046Z,100355.69
2018-07-15T23:42:09.622Z,100353.78
2018-07-15T23:45:07.083Z,100349.57
2018-07-15T23:48:04.238Z,100353.27
2018-07-15T23:51:01.314Z,100353.18
2018-07-15T23:53:58.970Z,100350.91
2018-07-15T23:56:56.466Z,100348.61
2018-07-15T23:59:54.308Z,100353.05
